sensor_id;sensor_type;location;lat;lon;timestamp;P1;durP1;ratioP1;P2;durP2;ratioP2
19038;SDS011;9652;49.014;12.052;2022-11-15T00:00:44;7.73;;;6.67;;
19038;SDS011;9652;49.014;12.052;2022-11-15T00:03:30;9.53;;;7.27;;
19038;SDS011;9652;49.014;12.052;2022-11-15T00:06:15;8.63;;;6.97;;
19038;SDS011;9652;49.014;12.052;2022-11-15T00:09:01;8.23;;;7.00;;
19038;SDS011;9652;49.014;12.052;2022-11-15T00:11:48;8.50;;;7.03;;
19038;SDS011;9652;49.014;12.052;2022-11-15T00:14:35;7.73;;;6.93;;
19038;SDS011;9652;49.014;12.052;2022-11-15T00:17:20;8.33;;;6.43;;
19038;SDS011;9652;49.014;12.052;2022-11-15T00:20:07;8.70;;;6.97;;
19038;SDS011;9652;49.014;12.052;2022-11-15T00:22:54;7.67;;;6.90;;
19038;SDS011;9652;49.014;12.052;2022-11-15T00:25:40;8.27;;;7.33;;
19038;SDS011;9652;49.014;12.052;2022-11-15T00:28:26;8.20;;;6.43;;
19038;SDS011;9652;49.014;12.052;2022-11-15T00:31:13;8.23;;;7.13;;
19038;SDS011;9652;49.014;12.052;2022-11-15T00:33:59;8.73;;;6.67;;
19038;SDS011;9652;49.014;12.052;2022-11-15T00:36:45;7.57;;;6.60;;
19038;SDS011;9652;49.014;12.052;2022-11-15T00:39:31;6.93;;;6.17;;
19038;SDS011;9652;49.014;12.052;2022-11-15T00:42:17;7.50;;;6.77;;
19038;SDS011;9652;49.014;12.052;2022-11-15T00:45:03;8.07;;;6.27;;
19038;SDS011;9652;49.014;12.052;2022-11-15T00:47:50;8.60;;;7.77;;
19038;SDS011;9652;49.014;12.052;2022-11-15T00:50:37;6.93;;;6.03;;
19038;SDS011;9652;49.014;12.052;2022-11-15T00:53:22;8.53;;;6.60;;
19038;SDS011;9652;49.014;12.052;2022-11-15T00:56:08;9.13;;;6.40;;
19038;SDS011;9652;49.014;12.052;2022-11-15T00:58:54;8.30;;;6.57;;
19038;SDS011;9652;49.014;12.052;2022-11-15T01:01:40;6.53;;;5.83;;
19038;SDS011;9652;49.014;12.052;2022-11-15T01:04:27;7.67;;;6.83;;
19038;SDS011;9652;49.014;12.052;2022-11-15T01:07:13;7.60;;;6.73;;
19038;SDS011;9652;49.014;12.052;2022-11-15T01:09:59;7.37;;;6.57;;
19038;SDS011;9652;49.014;12.052;2022-11-15T01:12:44;6.77;;;6.13;;
19038;SDS011;9652;49.014;12.052;2022-11-15T01:15:30;7.77;;;5.93;;
19038;SDS011;9652;49.014;12.052;2022-11-15T01:18:16;6.57;;;5.97;;
19038;SDS011;9652;49.014;12.052;2022-11-15T01:21:06;7.13;;;6.07;;
19038;SDS011;9652;49.014;12.052;2022-11-15T01:23:53;7.67;;;6.87;;
19038;SDS011;9652;49.014;12.052;2022-11-15T01:26:40;6.97;;;5.97;;
19038;SDS011;9652;49.014;12.052;2022-11-15T01:29:26;7.20;;;6.03;;
19038;SDS011;9652;49.014;12.052;2022-11-15T01:32:12;7.17;;;6.47;;
19038;SDS011;9652;49.014;12.052;2022-11-15T01:34:57;7.93;;;6.50;;
19038;SDS011;9652;49.014;12.052;2022-11-15T01:37:45;7.77;;;6.43;;
19038;SDS011;9652;49.014;12.052;2022-11-15T01:40:30;7.00;;;6.30;;
19038;SDS011;9652;49.014;12.052;2022-11-15T01:43:20;7.07;;;6.03;;
19038;SDS011;9652;49.014;12.052;2022-11-15T01:46:18;9.80;;;6.73;;
19038;SDS011;9652;49.014;12.052;2022-11-15T01:49:18;7.37;;;6.60;;
19038;SDS011;9652;49.014;12.052;2022-11-15T01:52:08;7.77;;;6.53;;
19038;SDS011;9652;49.014;12.052;2022-11-15T01:55:02;7.30;;;6.57;;
19038;SDS011;9652;49.014;12.052;2022-11-15T01:57:55;6.67;;;5.97;;
19038;SDS011;9652;49.014;12.052;2022-11-15T02:00:46;7.90;;;6.13;;
19038;SDS011;9652;49.014;12.052;2022-11-15T02:03:34;7.57;;;6.57;;
19038;SDS011;9652;49.014;12.052;2022-11-15T02:06:28;6.70;;;6.00;;
19038;SDS011;9652;49.014;12.052;2022-11-15T02:09:14;7.17;;;6.17;;
19038;SDS011;9652;49.014;12.052;2022-11-15T02:12:03;7.60;;;6.83;;
19038;SDS011;9652;49.014;12.052;2022-11-15T02:14:51;8.30;;;6.27;;
19038;SDS011;9652;49.014;12.052;2022-11-15T02:17:52;6.40;;;5.80;;
19038;SDS011;9652;49.014;12.052;2022-11-15T02:20:58;6.33;;;5.73;;
19038;SDS011;9652;49.014;12.052;2022-11-15T02:31:31;6.77;;;5.97;;
19038;SDS011;9652;49.014;12.052;2022-11-15T02:34:28;7.30;;;6.60;;
19038;SDS011;9652;49.014;12.052;2022-11-15T02:37:27;6.90;;;6.20;;
19038;SDS011;9652;49.014;12.052;2022-11-15T02:40:23;6.87;;;5.97;;
19038;SDS011;9652;49.014;12.052;2022-11-15T02:43:22;7.30;;;6.47;;
19038;SDS011;9652;49.014;12.052;2022-11-15T02:46:34;6.33;;;5.57;;
19038;SDS011;9652;49.014;12.052;2022-11-15T02:49:54;6.40;;;5.80;;
19038;SDS011;9652;49.014;12.052;2022-11-15T02:52:44;6.83;;;6.00;;
19038;SDS011;9652;49.014;12.052;2022-11-15T02:55:33;6.33;;;5.63;;
19038;SDS011;9652;49.014;12.052;2022-11-15T02:58:35;7.17;;;6.30;;
19038;SDS011;9652;49.014;12.052;2022-11-15T03:01:41;8.10;;;6.57;;
19038;SDS011;9652;49.014;12.052;2022-11-15T03:04:43;6.87;;;5.83;;
19038;SDS011;9652;49.014;12.052;2022-11-15T03:07:39;7.23;;;6.47;;
19038;SDS011;9652;49.014;12.052;2022-11-15T03:10:37;6.33;;;5.73;;
19038;SDS011;9652;49.014;12.052;2022-11-15T03:13:37;7.10;;;6.07;;
19038;SDS011;9652;49.014;12.052;2022-11-15T03:16:34;6.40;;;5.77;;
19038;SDS011;9652;49.014;12.052;2022-11-15T03:19:30;8.30;;;6.43;;
19038;SDS011;9652;49.014;12.052;2022-11-15T03:22:24;6.43;;;5.57;;
19038;SDS011;9652;49.014;12.052;2022-11-15T03:25:14;7.40;;;6.50;;
19038;SDS011;9652;49.014;12.052;2022-11-15T03:28:05;6.57;;;5.97;;
19038;SDS011;9652;49.014;12.052;2022-11-15T03:30:55;6.60;;;5.90;;
19038;SDS011;9652;49.014;12.052;2022-11-15T03:33:46;7.57;;;6.47;;
19038;SDS011;9652;49.014;12.052;2022-11-15T03:36:33;6.63;;;5.77;;
19038;SDS011;9652;49.014;12.052;2022-11-15T03:39:21;8.00;;;6.93;;
19038;SDS011;9652;49.014;12.052;2022-11-15T03:42:13;6.87;;;6.17;;
19038;SDS011;9652;49.014;12.052;2022-11-15T03:45:10;6.63;;;5.97;;
19038;SDS011;9652;49.014;12.052;2022-11-15T03:48:01;6.80;;;6.13;;
19038;SDS011;9652;49.014;12.052;2022-11-15T03:50:57;8.20;;;6.60;;
19038;SDS011;9652;49.014;12.052;2022-11-15T03:53:43;7.10;;;6.47;;
19038;SDS011;9652;49.014;12.052;2022-11-15T03:56:28;7.23;;;6.37;;
19038;SDS011;9652;49.014;12.052;2022-11-15T03:59:14;8.33;;;5.97;;
19038;SDS011;9652;49.014;12.052;2022-11-15T04:02:00;6.87;;;6.03;;
19038;SDS011;9652;49.014;12.052;2022-11-15T04:04:46;7.27;;;6.43;;
19038;SDS011;9652;49.014;12.052;2022-11-15T04:07:33;7.63;;;6.23;;
19038;SDS011;9652;49.014;12.052;2022-11-15T04:10:18;6.83;;;5.77;;
19038;SDS011;9652;49.014;12.052;2022-11-15T04:13:04;7.63;;;6.27;;
19038;SDS011;9652;49.014;12.052;2022-11-15T04:15:51;6.73;;;6.13;;
19038;SDS011;9652;49.014;12.052;2022-11-15T04:18:36;6.57;;;5.53;;
19038;SDS011;9652;49.014;12.052;2022-11-15T04:21:22;6.97;;;6.23;;
19038;SDS011;9652;49.014;12.052;2022-11-15T04:24:27;6.87;;;6.17;;
19038;SDS011;9652;49.014;12.052;2022-11-15T04:27:12;6.87;;;6.17;;
19038;SDS011;9652;49.014;12.052;2022-11-15T04:29:58;7.60;;;6.43;;
19038;SDS011;9652;49.014;12.052;2022-11-15T04:32:44;6.20;;;5.60;;
19038;SDS011;9652;49.014;12.052;2022-11-15T04:35:30;7.97;;;6.07;;
19038;SDS011;9652;49.014;12.052;2022-11-15T04:38:16;7.23;;;6.13;;
19038;SDS011;9652;49.014;12.052;2022-11-15T04:41:02;7.57;;;6.33;;
19038;SDS011;9652;49.014;12.052;2022-11-15T04:43:48;7.87;;;7.07;;
19038;SDS011;9652;49.014;12.052;2022-11-15T04:46:34;9.23;;;7.60;;
19038;SDS011;9652;49.014;12.052;2022-11-15T04:49:20;7.60;;;6.80;;
19038;SDS011;9652;49.014;12.052;2022-11-15T04:52:06;8.70;;;6.50;;
19038;SDS011;9652;49.014;12.052;2022-11-15T04:54:52;7.87;;;7.07;;
19038;SDS011;9652;49.014;12.052;2022-11-15T04:57:39;7.60;;;6.90;;
19038;SDS011;9652;49.014;12.052;2022-11-15T05:00:24;6.83;;;5.70;;
19038;SDS011;9652;49.014;12.052;2022-11-15T05:03:12;7.57;;;6.70;;
19038;SDS011;9652;49.014;12.052;2022-11-15T05:06:15;8.63;;;6.73;;
19038;SDS011;9652;49.014;12.052;2022-11-15T05:09:01;9.57;;;6.63;;
19038;SDS011;9652;49.014;12.052;2022-11-15T05:11:47;8.13;;;5.97;;
19038;SDS011;9652;49.014;12.052;2022-11-15T05:14:34;8.03;;;6.57;;
19038;SDS011;9652;49.014;12.052;2022-11-15T05:17:19;6.87;;;6.23;;
19038;SDS011;9652;49.014;12.052;2022-11-15T05:20:06;8.90;;;6.80;;
19038;SDS011;9652;49.014;12.052;2022-11-15T05:22:52;8.47;;;6.93;;
19038;SDS011;9652;49.014;12.052;2022-11-15T05:25:39;7.30;;;6.60;;
19038;SDS011;9652;49.014;12.052;2022-11-15T05:28:24;6.93;;;6.17;;
19038;SDS011;9652;49.014;12.052;2022-11-15T05:31:12;6.90;;;6.20;;
19038;SDS011;9652;49.014;12.052;2022-11-15T05:34:00;6.77;;;6.13;;
19038;SDS011;9652;49.014;12.052;2022-11-15T05:36:49;6.90;;;6.10;;
19038;SDS011;9652;49.014;12.052;2022-11-15T05:39:35;7.00;;;5.73;;
19038;SDS011;9652;49.014;12.052;2022-11-15T05:42:21;9.38;;;7.82;;
19038;SDS011;9652;49.014;12.052;2022-11-15T05:45:07;6.77;;;6.00;;
19038;SDS011;9652;49.014;12.052;2022-11-15T05:47:55;8.43;;;7.57;;
19038;SDS011;9652;49.014;12.052;2022-11-15T05:50:45;9.60;;;7.90;;
19038;SDS011;9652;49.014;12.052;2022-11-15T05:53:32;8.00;;;7.20;;
19038;SDS011;9652;49.014;12.052;2022-11-15T05:56:21;8.57;;;6.83;;
19038;SDS011;9652;49.014;12.052;2022-11-15T05:59:06;7.43;;;6.43;;
19038;SDS011;9652;49.014;12.052;2022-11-15T06:01:53;8.30;;;6.97;;
19038;SDS011;9652;49.014;12.052;2022-11-15T06:04:41;11.03;;;7.67;;
19038;SDS011;9652;49.014;12.052;2022-11-15T06:07:26;8.23;;;7.23;;
19038;SDS011;9652;49.014;12.052;2022-11-15T06:10:13;8.40;;;6.87;;
19038;SDS011;9652;49.014;12.052;2022-11-15T06:12:59;8.53;;;6.97;;
19038;SDS011;9652;49.014;12.052;2022-11-15T06:15:48;7.13;;;6.43;;
19038;SDS011;9652;49.014;12.052;2022-11-15T06:18:34;6.57;;;5.87;;
19038;SDS011;9652;49.014;12.052;2022-11-15T06:21:22;8.00;;;7.17;;
19038;SDS011;9652;49.014;12.052;2022-11-15T06:24:08;7.53;;;6.80;;
19038;SDS011;9652;49.014;12.052;2022-11-15T06:26:54;8.53;;;5.87;;
19038;SDS011;9652;49.014;12.052;2022-11-15T06:29:40;6.93;;;6.23;;
19038;SDS011;9652;49.014;12.052;2022-11-15T06:32:26;7.63;;;6.93;;
19038;SDS011;9652;49.014;12.052;2022-11-15T06:35:14;8.10;;;6.37;;
19038;SDS011;9652;49.014;12.052;2022-11-15T06:38:02;6.97;;;5.47;;
19038;SDS011;9652;49.014;12.052;2022-11-15T06:40:49;6.67;;;6.07;;
19038;SDS011;9652;49.014;12.052;2022-11-15T06:43:35;7.03;;;6.30;;
19038;SDS011;9652;49.014;12.052;2022-11-15T06:46:22;8.17;;;5.43;;
19038;SDS011;9652;49.014;12.052;2022-11-15T06:49:07;6.67;;;6.07;;
19038;SDS011;9652;49.014;12.052;2022-11-15T06:51:53;6.37;;;5.77;;
19038;SDS011;9652;49.014;12.052;2022-11-15T06:54:41;7.77;;;6.83;;
19038;SDS011;9652;49.014;12.052;2022-11-15T06:57:26;7.03;;;6.43;;
19038;SDS011;9652;49.014;12.052;2022-11-15T07:00:13;7.47;;;6.03;;
19038;SDS011;9652;49.014;12.052;2022-11-15T07:03:00;9.07;;;7.00;;
19038;SDS011;9652;49.014;12.052;2022-11-15T07:05:50;7.83;;;6.33;;
19038;SDS011;9652;49.014;12.052;2022-11-15T07:08:38;7.57;;;6.63;;
19038;SDS011;9652;49.014;12.052;2022-11-15T07:11:26;8.07;;;6.87;;
19038;SDS011;9652;49.014;12.052;2022-11-15T07:14:12;7.30;;;6.50;;
19038;SDS011;9652;49.014;12.052;2022-11-15T07:16:58;7.83;;;6.57;;
19038;SDS011;9652;49.014;12.052;2022-11-15T07:19:44;7.90;;;6.80;;
19038;SDS011;9652;49.014;12.052;2022-11-15T07:22:32;8.70;;;7.47;;
19038;SDS011;9652;49.014;12.052;2022-11-15T07:25:18;7.70;;;6.30;;
19038;SDS011;9652;49.014;12.052;2022-11-15T07:28:05;6.90;;;6.27;;
19038;SDS011;9652;49.014;12.052;2022-11-15T07:30:51;7.67;;;6.40;;
19038;SDS011;9652;49.014;12.052;2022-11-15T07:33:38;6.67;;;6.07;;
19038;SDS011;9652;49.014;12.052;2022-11-15T07:36:25;7.57;;;6.80;;
19038;SDS011;9652;49.014;12.052;2022-11-15T07:39:11;7.13;;;6.43;;
19038;SDS011;9652;49.014;12.052;2022-11-15T07:41:58;7.50;;;6.70;;
19038;SDS011;9652;49.014;12.052;2022-11-15T07:45:03;7.13;;;6.40;;
19038;SDS011;9652;49.014;12.052;2022-11-15T07:47:50;7.47;;;6.77;;
19038;SDS011;9652;49.014;12.052;2022-11-15T07:50:39;7.50;;;6.70;;
19038;SDS011;9652;49.014;12.052;2022-11-15T07:53:25;9.03;;;7.00;;
19038;SDS011;9652;49.014;12.052;2022-11-15T07:56:11;8.00;;;6.83;;
19038;SDS011;9652;49.014;12.052;2022-11-15T07:58:57;10.07;;;6.67;;
19038;SDS011;9652;49.014;12.052;2022-11-15T08:01:46;7.17;;;6.47;;
19038;SDS011;9652;49.014;12.052;2022-11-15T08:04:31;8.43;;;7.30;;
19038;SDS011;9652;49.014;12.052;2022-11-15T08:07:17;7.73;;;6.73;;
19038;SDS011;9652;49.014;12.052;2022-11-15T08:10:03;8.17;;;6.63;;
19038;SDS011;9652;49.014;12.052;2022-11-15T08:12:56;8.20;;;7.03;;
19038;SDS011;9652;49.014;12.052;2022-11-15T08:15:43;8.53;;;7.37;;
19038;SDS011;9652;49.014;12.052;2022-11-15T08:18:31;7.60;;;6.63;;
19038;SDS011;9652;49.014;12.052;2022-11-15T08:21:18;8.83;;;7.10;;
19038;SDS011;9652;49.014;12.052;2022-11-15T08:24:05;7.90;;;6.73;;
19038;SDS011;9652;49.014;12.052;2022-11-15T08:26:54;9.07;;;7.77;;
19038;SDS011;9652;49.014;12.052;2022-11-15T08:29:40;9.00;;;7.27;;
19038;SDS011;9652;49.014;12.052;2022-11-15T08:32:27;8.57;;;7.40;;
19038;SDS011;9652;49.014;12.052;2022-11-15T08:35:15;11.77;;;7.37;;
19038;SDS011;9652;49.014;12.052;2022-11-15T08:38:01;8.20;;;7.40;;
19038;SDS011;9652;49.014;12.052;2022-11-15T08:40:47;8.17;;;6.83;;
19038;SDS011;9652;49.014;12.052;2022-11-15T08:43:32;9.93;;;7.53;;
19038;SDS011;9652;49.014;12.052;2022-11-15T08:46:18;10.13;;;7.70;;
19038;SDS011;9652;49.014;12.052;2022-11-15T08:49:04;8.40;;;7.50;;
19038;SDS011;9652;49.014;12.052;2022-11-15T08:51:51;9.73;;;7.40;;
19038;SDS011;9652;49.014;12.052;2022-11-15T08:54:36;7.63;;;6.80;;
19038;SDS011;9652;49.014;12.052;2022-11-15T08:57:22;9.40;;;7.73;;
19038;SDS011;9652;49.014;12.052;2022-11-15T09:00:09;12.13;;;8.07;;
19038;SDS011;9652;49.014;12.052;2022-11-15T09:02:56;10.27;;;7.87;;
19038;SDS011;9652;49.014;12.052;2022-11-15T09:05:43;10.10;;;7.53;;
19038;SDS011;9652;49.014;12.052;2022-11-15T09:08:30;9.57;;;7.60;;
19038;SDS011;9652;49.014;12.052;2022-11-15T09:11:15;9.20;;;7.27;;
19038;SDS011;9652;49.014;12.052;2022-11-15T09:14:04;11.37;;;8.00;;
19038;SDS011;9652;49.014;12.052;2022-11-15T09:16:50;11.80;;;8.13;;
19038;SDS011;9652;49.014;12.052;2022-11-15T09:19:35;10.57;;;8.43;;
19038;SDS011;9652;49.014;12.052;2022-11-15T09:22:21;10.60;;;8.70;;
19038;SDS011;9652;49.014;12.052;2022-11-15T09:25:09;10.90;;;8.20;;
19038;SDS011;9652;49.014;12.052;2022-11-15T09:27:55;10.93;;;8.70;;
19038;SDS011;9652;49.014;12.052;2022-11-15T09:30:41;11.03;;;8.80;;
19038;SDS011;9652;49.014;12.052;2022-11-15T09:33:27;11.13;;;8.57;;
19038;SDS011;9652;49.014;12.052;2022-11-15T09:36:13;9.93;;;8.17;;
19038;SDS011;9652;49.014;12.052;2022-11-15T09:39:00;10.47;;;8.00;;
19038;SDS011;9652;49.014;12.052;2022-11-15T09:45:05;12.60;;;8.00;;
19038;SDS011;9652;49.014;12.052;2022-11-15T09:48:12;12.57;;;8.87;;
19038;SDS011;9652;49.014;12.052;2022-11-15T09:51:36;11.73;;;7.83;;
19038;SDS011;9652;49.014;12.052;2022-11-15T09:54:13;9.73;;;7.70;;
19038;SDS011;9652;49.014;12.052;2022-11-15T09:56:52;17.20;;;8.10;;
19038;SDS011;9652;49.014;12.052;2022-11-15T09:59:27;9.47;;;7.63;;
19038;SDS011;9652;49.014;12.052;2022-11-15T10:02:17;12.30;;;8.70;;
19038;SDS011;9652;49.014;12.052;2022-11-15T10:05:04;12.37;;;9.17;;
19038;SDS011;9652;49.014;12.052;2022-11-15T10:07:37;11.70;;;8.13;;
19038;SDS011;9652;49.014;12.052;2022-11-15T10:10:19;13.77;;;8.83;;
19038;SDS011;9652;49.014;12.052;2022-11-15T10:12:55;11.53;;;8.50;;
19038;SDS011;9652;49.014;12.052;2022-11-15T10:15:25;13.70;;;8.70;;
19038;SDS011;9652;49.014;12.052;2022-11-15T10:18:00;12.73;;;9.00;;
19038;SDS011;9652;49.014;12.052;2022-11-15T10:20:39;12.87;;;9.23;;
19038;SDS011;9652;49.014;12.052;2022-11-15T10:23:15;10.93;;;7.87;;
19038;SDS011;9652;49.014;12.052;2022-11-15T10:25:45;11.63;;;7.77;;
19038;SDS011;9652;49.014;12.052;2022-11-15T10:28:16;10.97;;;8.53;;
19038;SDS011;9652;49.014;12.052;2022-11-15T10:30:50;14.73;;;9.20;;
19038;SDS011;9652;49.014;12.052;2022-11-15T10:33:30;12.47;;;8.03;;
19038;SDS011;9652;49.014;12.052;2022-11-15T10:36:14;12.50;;;8.23;;
19038;SDS011;9652;49.014;12.052;2022-11-15T10:38:53;13.57;;;8.23;;
19038;SDS011;9652;49.014;12.052;2022-11-15T10:41:29;10.17;;;7.43;;
19038;SDS011;9652;49.014;12.052;2022-11-15T10:44:02;14.23;;;9.20;;
19038;SDS011;9652;49.014;12.052;2022-11-15T10:46:40;11.97;;;8.47;;
19038;SDS011;9652;49.014;12.052;2022-11-15T10:49:12;13.07;;;8.77;;
19038;SDS011;9652;49.014;12.052;2022-11-15T10:51:42;11.97;;;8.77;;
19038;SDS011;9652;49.014;12.052;2022-11-15T10:54:15;12.07;;;8.27;;
19038;SDS011;9652;49.014;12.052;2022-11-15T10:56:51;16.10;;;9.27;;
19038;SDS011;9652;49.014;12.052;2022-11-15T10:59:24;11.87;;;8.33;;
19038;SDS011;9652;49.014;12.052;2022-11-15T11:01:56;13.40;;;9.23;;
19038;SDS011;9652;49.014;12.052;2022-11-15T11:04:24;12.13;;;8.30;;
19038;SDS011;9652;49.014;12.052;2022-11-15T11:06:52;14.67;;;8.70;;
19038;SDS011;9652;49.014;12.052;2022-11-15T11:09:23;12.43;;;7.63;;
19038;SDS011;9652;49.014;12.052;2022-11-15T11:11:57;11.83;;;8.17;;
19038;SDS011;9652;49.014;12.052;2022-11-15T11:14:26;14.17;;;9.03;;
19038;SDS011;9652;49.014;12.052;2022-11-15T11:17:00;12.57;;;8.40;;
19038;SDS011;9652;49.014;12.052;2022-11-15T11:19:38;12.90;;;8.80;;
19038;SDS011;9652;49.014;12.052;2022-11-15T11:22:25;10.47;;;7.93;;
19038;SDS011;9652;49.014;12.052;2022-11-15T11:25:07;10.50;;;7.63;;
19038;SDS011;9652;49.014;12.052;2022-11-15T11:27:48;11.37;;;7.60;;
19038;SDS011;9652;49.014;12.052;2022-11-15T11:30:39;11.47;;;7.93;;
19038;SDS011;9652;49.014;12.052;2022-11-15T11:33:17;11.60;;;7.43;;
19038;SDS011;9652;49.014;12.052;2022-11-15T11:35:57;12.00;;;8.07;;
19038;SDS011;9652;49.014;12.052;2022-11-15T11:38:44;10.20;;;7.40;;
19038;SDS011;9652;49.014;12.052;2022-11-15T11:44:24;9.77;;;6.70;;
19038;SDS011;9652;49.014;12.052;2022-11-15T11:47:07;11.03;;;7.00;;
19038;SDS011;9652;49.014;12.052;2022-11-15T11:49:41;11.80;;;7.90;;
19038;SDS011;9652;49.014;12.052;2022-11-15T11:52:15;12.53;;;7.57;;
19038;SDS011;9652;49.014;12.052;2022-11-15T11:54:52;11.50;;;7.53;;
19038;SDS011;9652;49.014;12.052;2022-11-15T11:57:33;8.67;;;6.67;;
19038;SDS011;9652;49.014;12.052;2022-11-15T12:00:14;9.53;;;6.73;;
19038;SDS011;9652;49.014;12.052;2022-11-15T12:02:47;8.57;;;6.20;;
19038;SDS011;9652;49.014;12.052;2022-11-15T12:05:30;11.67;;;7.30;;
19038;SDS011;9652;49.014;12.052;2022-11-15T12:08:12;9.33;;;7.17;;
19038;SDS011;9652;49.014;12.052;2022-11-15T12:11:09;10.63;;;7.00;;
19038;SDS011;9652;49.014;12.052;2022-11-15T12:13:43;10.67;;;6.47;;
19038;SDS011;9652;49.014;12.052;2022-11-15T12:16:16;12.73;;;7.37;;
19038;SDS011;9652;49.014;12.052;2022-11-15T12:18:49;9.23;;;6.53;;
19038;SDS011;9652;49.014;12.052;2022-11-15T12:21:21;9.17;;;6.83;;
19038;SDS011;9652;49.014;12.052;2022-11-15T12:23:58;10.87;;;6.80;;
19038;SDS011;9652;49.014;12.052;2022-11-15T12:26:33;8.43;;;6.30;;
19038;SDS011;9652;49.014;12.052;2022-11-15T12:29:09;10.37;;;6.50;;
19038;SDS011;9652;49.014;12.052;2022-11-15T12:31:43;10.53;;;6.73;;
19038;SDS011;9652;49.014;12.052;2022-11-15T12:34:29;8.07;;;5.83;;
19038;SDS011;9652;49.014;12.052;2022-11-15T12:37:33;7.07;;;5.90;;
19038;SDS011;9652;49.014;12.052;2022-11-15T12:40:17;10.17;;;6.53;;
19038;SDS011;9652;49.014;12.052;2022-11-15T12:43:03;11.23;;;6.83;;
19038;SDS011;9652;49.014;12.052;2022-11-15T12:46:10;7.13;;;5.10;;
19038;SDS011;9652;49.014;12.052;2022-11-15T12:48:50;9.17;;;6.07;;
19038;SDS011;9652;49.014;12.052;2022-11-15T12:51:22;9.90;;;6.83;;
19038;SDS011;9652;49.014;12.052;2022-11-15T12:57:36;7.37;;;5.90;;
19038;SDS011;9652;49.014;12.052;2022-11-15T13:03:24;8.90;;;6.17;;
19038;SDS011;9652;49.014;12.052;2022-11-15T13:06:04;10.07;;;5.77;;
19038;SDS011;9652;49.014;12.052;2022-11-15T13:20:09;9.90;;;5.37;;
19038;SDS011;9652;49.014;12.052;2022-11-15T13:22:58;8.10;;;5.27;;
19038;SDS011;9652;49.014;12.052;2022-11-15T13:28:47;7.40;;;4.67;;
19038;SDS011;9652;49.014;12.052;2022-11-15T13:31:30;6.23;;;4.87;;
19038;SDS011;9652;49.014;12.052;2022-11-15T13:34:12;6.37;;;4.40;;
19038;SDS011;9652;49.014;12.052;2022-11-15T13:36:51;6.60;;;5.17;;
19038;SDS011;9652;49.014;12.052;2022-11-15T13:39:28;7.20;;;5.40;;
19038;SDS011;9652;49.014;12.052;2022-11-15T13:41:58;7.37;;;5.03;;
19038;SDS011;9652;49.014;12.052;2022-11-15T13:44:28;6.87;;;5.03;;
19038;SDS011;9652;49.014;12.052;2022-11-15T13:47:00;8.60;;;5.10;;
19038;SDS011;9652;49.014;12.052;2022-11-15T13:49:31;8.40;;;5.23;;
19038;SDS011;9652;49.014;12.052;2022-11-15T13:52:00;8.23;;;4.77;;
19038;SDS011;9652;49.014;12.052;2022-11-15T13:54:34;7.80;;;5.20;;
19038;SDS011;9652;49.014;12.052;2022-11-15T13:57:09;6.93;;;5.30;;
19038;SDS011;9652;49.014;12.052;2022-11-15T13:59:45;5.67;;;4.90;;
19038;SDS011;9652;49.014;12.052;2022-11-15T14:02:18;7.13;;;5.17;;
19038;SDS011;9652;49.014;12.052;2022-11-15T14:04:52;6.80;;;5.30;;
19038;SDS011;9652;49.014;12.052;2022-11-15T14:07:23;6.87;;;4.90;;
19038;SDS011;9652;49.014;12.052;2022-11-15T14:09:52;5.80;;;4.33;;
19038;SDS011;9652;49.014;12.052;2022-11-15T14:12:25;5.37;;;4.20;;
19038;SDS011;9652;49.014;12.052;2022-11-15T14:14:59;8.43;;;5.80;;
19038;SDS011;9652;49.014;12.052;2022-11-15T14:17:52;8.77;;;5.07;;
19038;SDS011;9652;49.014;12.052;2022-11-15T14:20:29;7.27;;;5.20;;
19038;SDS011;9652;49.014;12.052;2022-11-15T14:22:59;7.27;;;5.13;;
19038;SDS011;9652;49.014;12.052;2022-11-15T14:25:29;10.50;;;5.67;;
19038;SDS011;9652;49.014;12.052;2022-11-15T14:28:07;8.20;;;5.73;;
19038;SDS011;9652;49.014;12.052;2022-11-15T14:30:57;9.77;;;5.10;;
19038;SDS011;9652;49.014;12.052;2022-11-15T14:33:27;9.13;;;5.60;;
19038;SDS011;9652;49.014;12.052;2022-11-15T14:35:58;8.70;;;5.33;;
19038;SDS011;9652;49.014;12.052;2022-11-15T14:38:31;7.57;;;5.23;;
19038;SDS011;9652;49.014;12.052;2022-11-15T14:40:59;7.90;;;5.30;;
19038;SDS011;9652;49.014;12.052;2022-11-15T14:43:26;6.47;;;5.00;;
19038;SDS011;9652;49.014;12.052;2022-11-15T14:45:54;6.10;;;4.70;;
19038;SDS011;9652;49.014;12.052;2022-11-15T14:48:22;8.83;;;5.23;;
19038;SDS011;9652;49.014;12.052;2022-11-15T14:50:50;5.40;;;4.70;;
19038;SDS011;9652;49.014;12.052;2022-11-15T14:53:17;7.07;;;4.27;;
19038;SDS011;9652;49.014;12.052;2022-11-15T14:55:45;6.47;;;4.57;;
19038;SDS011;9652;49.014;12.052;2022-11-15T14:58:12;6.23;;;4.83;;
19038;SDS011;9652;49.014;12.052;2022-11-15T15:00:40;8.53;;;4.50;;
19038;SDS011;9652;49.014;12.052;2022-11-15T15:03:08;6.93;;;4.93;;
19038;SDS011;9652;49.014;12.052;2022-11-15T15:05:38;5.90;;;4.47;;
19038;SDS011;9652;49.014;12.052;2022-11-15T15:08:07;5.20;;;4.43;;
19038;SDS011;9652;49.014;12.052;2022-11-15T15:10:36;6.67;;;4.53;;
19038;SDS011;9652;49.014;12.052;2022-11-15T15:13:08;7.00;;;4.67;;
19038;SDS011;9652;49.014;12.052;2022-11-15T15:15:42;7.73;;;4.70;;
19038;SDS011;9652;49.014;12.052;2022-11-15T15:18:10;6.23;;;4.70;;
19038;SDS011;9652;49.014;12.052;2022-11-15T15:20:39;9.47;;;5.43;;
19038;SDS011;9652;49.014;12.052;2022-11-15T15:23:14;7.70;;;5.07;;
19038;SDS011;9652;49.014;12.052;2022-11-15T15:25:43;5.70;;;4.90;;
19038;SDS011;9652;49.014;12.052;2022-11-15T15:28:11;10.83;;;5.33;;
19038;SDS011;9652;49.014;12.052;2022-11-15T15:30:39;14.30;;;6.37;;
19038;SDS011;9652;49.014;12.052;2022-11-15T15:33:06;8.50;;;5.53;;
19038;SDS011;9652;49.014;12.052;2022-11-15T15:35:34;10.33;;;6.07;;
19038;SDS011;9652;49.014;12.052;2022-11-15T15:38:03;11.87;;;5.87;;
19038;SDS011;9652;49.014;12.052;2022-11-15T15:40:31;9.63;;;5.73;;
19038;SDS011;9652;49.014;12.052;2022-11-15T15:42:59;9.20;;;5.80;;
19038;SDS011;9652;49.014;12.052;2022-11-15T15:45:26;6.90;;;5.07;;
19038;SDS011;9652;49.014;12.052;2022-11-15T15:47:54;9.07;;;5.47;;
19038;SDS011;9652;49.014;12.052;2022-11-15T15:50:23;9.67;;;6.17;;
19038;SDS011;9652;49.014;12.052;2022-11-15T15:52:54;7.97;;;5.73;;
19038;SDS011;9652;49.014;12.052;2022-11-15T15:55:26;8.23;;;5.17;;
19038;SDS011;9652;49.014;12.052;2022-11-15T15:57:54;8.53;;;5.83;;
19038;SDS011;9652;49.014;12.052;2022-11-15T16:00:22;8.50;;;6.03;;
19038;SDS011;9652;49.014;12.052;2022-11-15T16:02:51;6.90;;;5.03;;
19038;SDS011;9652;49.014;12.052;2022-11-15T16:05:19;7.13;;;5.37;;
19038;SDS011;9652;49.014;12.052;2022-11-15T16:07:46;6.93;;;5.47;;
19038;SDS011;9652;49.014;12.052;2022-11-15T16:10:19;10.50;;;5.80;;
19038;SDS011;9652;49.014;12.052;2022-11-15T16:12:51;8.20;;;5.50;;
19038;SDS011;9652;49.014;12.052;2022-11-15T16:15:20;9.17;;;5.90;;
19038;SDS011;9652;49.014;12.052;2022-11-15T16:17:50;14.87;;;6.10;;
19038;SDS011;9652;49.014;12.052;2022-11-15T16:20:21;9.03;;;6.10;;
19038;SDS011;9652;49.014;12.052;2022-11-15T16:22:58;8.10;;;6.00;;
19038;SDS011;9652;49.014;12.052;2022-11-15T16:25:26;12.40;;;6.70;;
19038;SDS011;9652;49.014;12.052;2022-11-15T16:27:55;9.40;;;6.60;;
19038;SDS011;9652;49.014;12.052;2022-11-15T16:30:22;10.73;;;6.27;;
19038;SDS011;9652;49.014;12.052;2022-11-15T16:32:49;8.40;;;6.90;;
19038;SDS011;9652;49.014;12.052;2022-11-15T16:35:18;12.33;;;7.20;;
19038;SDS011;9652;49.014;12.052;2022-11-15T16:37:45;10.87;;;7.27;;
19038;SDS011;9652;49.014;12.052;2022-11-15T16:40:17;9.23;;;6.97;;
19038;SDS011;9652;49.014;12.052;2022-11-15T16:42:51;13.33;;;7.57;;
19038;SDS011;9652;49.014;12.052;2022-11-15T16:45:21;9.97;;;6.83;;
19038;SDS011;9652;49.014;12.052;2022-11-15T16:47:49;9.43;;;6.80;;
19038;SDS011;9652;49.014;12.052;2022-11-15T16:50:20;10.73;;;7.00;;
19038;SDS011;9652;49.014;12.052;2022-11-15T16:52:50;12.10;;;7.43;;